createdAt,value
2019-06-08T00:00:47.052Z,100548.06
2019-06-08T00:03:52.023Z,100547.00
2019-06-08T00:06:57.939Z,100551.39
2019-06-08T00:10:02.754Z,100576.59
2019-06-08T00:13:08.302Z,100568.94
2019-06-08T00:16:13.458Z,100569.80
2019-06-08T00:19:19.434Z,100575.23
2019-06-08T00:22:24.224Z,100559.13
2019-06-08T00:25:29.251Z,100564.45
2019-06-08T00:28:34.290Z,100589.14
2019-06-08T00:31:39.051Z,100589.14
2019-06-08T00:34:43.778Z,100584.31
2019-06-08T00:37:48.877Z,100600.34
2019-06-08T00:40:53.641Z,100605.91
2019-06-08T00:43:58.582Z,100605.91
2019-06-08T00:47:03.344Z,100614.20
2019-06-08T00:50:08.591Z,100615.28
2019-06-08T00:53:13.453Z,100611.62
2019-06-08T00:56:19.234Z,100611.62
2019-06-08T00:59:24.693Z,100620.22
2019-06-08T01:02:29.864Z,100639.67
2019-06-08T01:05:35.000Z,100638.34
2019-06-08T01:08:40.240Z,100632.33
2019-06-08T01:11:45.377Z,100638.20
2019-06-08T01:14:50.488Z,100648.66
2019-06-08T01:18:02.556Z,100643.20
2019-06-08T01:21:02.862Z,100672.98
2019-06-08T01:24:08.873Z,100680.78
2019-06-08T01:27:13.984Z,100689.16
2019-06-08T01:30:20.600Z,100669.12
2019-06-08T01:33:26.537Z,100682.92
2019-06-08T01:36:31.488Z,100682.92
2019-06-08T01:39:36.210Z,100699.55
2019-06-08T01:42:40.978Z,100698.95
2019-06-08T01:45:45.701Z,100727.55
2019-06-08T01:48:50.460Z,100744.38
2019-06-08T01:51:55.487Z,100740.55
2019-06-08T01:55:00.250Z,100739.22
2019-06-08T01:58:05.153Z,100729.05
2019-06-08T02:01:09.978Z,100735.39
2019-06-08T02:04:14.786Z,100726.55
2019-06-08T02:07:19.550Z,100727.27
2019-06-08T02:10:24.458Z,100734.28
2019-06-08T02:13:29.200Z,100727.64
2019-06-08T02:16:35.353Z,100742.34
2019-06-08T02:19:40.465Z,100749.17
2019-06-08T02:22:45.235Z,100742.67
2019-06-08T02:25:50.017Z,100721.87
2019-06-08T02:28:54.772Z,100735.87
2019-06-08T02:31:59.532Z,100743.59
2019-06-08T02:35:05.060Z,100728.91
2019-06-08T02:38:10.126Z,100749.08
2019-06-08T02:41:14.932Z,100754.08
2019-06-08T02:44:19.772Z,100745.95
2019-06-08T02:47:25.908Z,100752.84
2019-06-08T02:50:51.113Z,100767.48
2019-06-08T02:53:56.588Z,100770.34
2019-06-08T02:57:04.889Z,100766.22
2019-06-08T03:00:10.498Z,100775.06
2019-06-08T03:03:15.433Z,100771.61
2019-06-08T03:06:21.732Z,100770.35
2019-06-08T03:09:28.064Z,100768.09
2019-06-08T03:12:35.167Z,100768.33
2019-06-08T03:15:43.481Z,100772.08
2019-06-08T03:18:48.297Z,100774.11
2019-06-08T03:21:53.388Z,100774.95
2019-06-08T03:24:58.401Z,100770.27
2019-06-08T03:28:03.169Z,100761.35
2019-06-08T03:31:08.010Z,100774.81
2019-06-08T03:34:13.411Z,100782.69
2019-06-08T03:37:18.157Z,100782.79
2019-06-08T03:40:22.991Z,100791.53
2019-06-08T03:43:27.997Z,100800.91
2019-06-08T03:46:34.471Z,100785.81
2019-06-08T03:49:50.676Z,100784.05
2019-06-08T03:52:46.238Z,100793.75
2019-06-08T03:55:51.596Z,100799.97
2019-06-08T03:58:56.343Z,100827.72
2019-06-08T04:02:01.435Z,100834.30
2019-06-08T04:05:06.380Z,100845.12
2019-06-08T04:08:11.163Z,100843.67
2019-06-08T04:11:15.939Z,100853.97
2019-06-08T04:14:20.681Z,100860.77
2019-06-08T04:17:25.442Z,100861.00
2019-06-08T04:20:30.264Z,100866.59
2019-06-08T04:23:35.048Z,100862.15
2019-06-08T04:26:40.549Z,100862.80
2019-06-08T04:29:46.264Z,100864.81
2019-06-08T04:32:51.361Z,100877.17
2019-06-08T04:35:56.423Z,100877.05
2019-06-08T04:39:01.181Z,100878.97
2019-06-08T04:42:07.536Z,100892.13
2019-06-08T04:45:12.800Z,100898.03
2019-06-08T04:48:17.554Z,100905.50
2019-06-08T04:51:22.302Z,100910.91
2019-06-08T04:54:27.363Z,100915.14
2019-06-08T04:57:32.201Z,100919.13
2019-06-08T05:00:39.046Z,100930.93
2019-06-08T05:03:45.528Z,100932.91
2019-06-08T05:06:50.235Z,100933.98
2019-06-08T05:09:55.627Z,100938.04
2019-06-08T05:13:00.513Z,100932.20
2019-06-08T05:16:05.454Z,100940.23
2019-06-08T05:19:10.940Z,100944.50
2019-06-08T05:22:15.987Z,100955.08
2019-06-08T05:25:21.848Z,100967.03
2019-06-08T05:28:26.748Z,100968.91
2019-06-08T05:31:31.534Z,100974.96
2019-06-08T05:34:36.780Z,100984.39
2019-06-08T05:37:41.799Z,100989.98
2019-06-08T05:40:47.650Z,100987.97
2019-06-08T05:43:52.622Z,101000.39
2019-06-08T05:46:57.386Z,101008.44
2019-06-08T05:50:02.957Z,100999.53
2019-06-08T05:53:07.808Z,101005.03
2019-06-08T05:56:12.573Z,101005.91
2019-06-08T05:59:17.335Z,101010.08
2019-06-08T06:02:22.519Z,101002.20
2019-06-08T06:05:27.354Z,101010.25
2019-06-08T06:08:32.191Z,101012.31
2019-06-08T06:11:37.033Z,101018.67
2019-06-08T06:14:42.794Z,101022.94
2019-06-08T06:17:48.443Z,101017.71
2019-06-08T06:21:07.405Z,101036.10
2019-06-08T06:24:01.059Z,101040.39
2019-06-08T06:27:06.155Z,101033.58
2019-06-08T06:30:11.475Z,101036.41
2019-06-08T06:33:16.381Z,101029.38
2019-06-08T06:36:21.283Z,101046.69
2019-06-08T06:39:26.357Z,101051.34
2019-06-08T06:42:31.183Z,101040.47
2019-06-08T06:45:36.362Z,101059.22
2019-06-08T06:48:42.031Z,101053.02
2019-06-08T06:51:47.008Z,101064.72
2019-06-08T06:54:53.163Z,101067.81
2019-06-08T06:57:59.462Z,101077.23
2019-06-08T07:01:05.579Z,101065.84
2019-06-08T07:04:10.870Z,101077.20
2019-06-08T07:07:15.715Z,101079.50
2019-06-08T07:10:20.589Z,101082.13
2019-06-08T07:13:25.466Z,101085.95
2019-06-08T07:16:30.224Z,101092.25
2019-06-08T07:19:35.062Z,101091.48
2019-06-08T07:22:41.091Z,101097.44
2019-06-08T07:25:46.267Z,101102.14
2019-06-08T07:28:52.466Z,101097.38
2019-06-08T07:31:59.257Z,101096.81
2019-06-08T07:35:04.946Z,101112.59
2019-06-08T07:38:09.912Z,101100.30
2019-06-08T07:41:14.720Z,101106.67
2019-06-08T07:44:19.504Z,101096.45
2019-06-08T07:47:24.766Z,101101.53
2019-06-08T07:50:29.604Z,101114.41
2019-06-08T07:53:34.406Z,101101.09
2019-06-08T07:56:39.228Z,101102.33
2019-06-08T07:59:44.309Z,101111.73
2019-06-08T08:02:50.142Z,101109.97
2019-06-08T08:05:56.589Z,101109.97
2019-06-08T08:09:01.408Z,101104.27
2019-06-08T08:12:11.239Z,101104.27
2019-06-08T08:15:15.295Z,101102.16
2019-06-08T08:18:20.058Z,101113.17
2019-06-08T08:21:28.775Z,101103.55
2019-06-08T08:24:32.029Z,101103.55
2019-06-08T08:27:37.760Z,101104.81
2019-06-08T08:30:42.763Z,101100.37
2019-06-08T08:33:49.731Z,101107.73
2019-06-08T08:36:54.118Z,101118.20
2019-06-08T08:40:01.329Z,101120.17
2019-06-08T08:43:05.817Z,101120.17
2019-06-08T08:46:11.355Z,101127.61
2019-06-08T08:49:18.284Z,101132.73
2019-06-08T08:52:34.417Z,101122.67
2019-06-08T08:55:30.872Z,101120.92
2019-06-08T08:58:37.938Z,101120.92
2019-06-08T09:01:42.384Z,101126.04
2019-06-08T09:04:47.757Z,101123.21
2019-06-08T09:07:53.744Z,101127.91
2019-06-08T09:11:01.750Z,101130.92
2019-06-08T09:14:10.880Z,101128.47
2019-06-08T09:17:11.876Z,101141.27
2019-06-08T09:20:20.118Z,101140.42
2019-06-08T09:23:27.820Z,101142.21
2019-06-08T09:26:31.796Z,101150.02
2019-06-08T09:29:38.843Z,101158.80
2019-06-08T09:32:43.233Z,101156.55
2019-06-08T09:35:48.344Z,101151.31
2019-06-08T09:38:55.973Z,101154.02
2019-06-08T09:42:03.024Z,101151.48
2019-06-08T09:45:08.899Z,101157.23
2019-06-08T09:48:14.003Z,101165.00
2019-06-08T09:51:18.817Z,101167.57
2019-06-08T09:54:23.654Z,101158.34
2019-06-08T09:57:28.577Z,101155.41
2019-06-08T10:00:33.437Z,101158.02
2019-06-08T10:03:39.240Z,101156.08
2019-06-08T10:06:47.781Z,101154.72
2019-06-08T10:09:52.034Z,101160.01
2019-06-08T10:12:59.652Z,101159.13
2019-06-08T10:16:06.983Z,101156.94
2019-06-08T10:19:10.585Z,101155.56
2019-06-08T10:22:17.986Z,101160.48
2019-06-08T10:25:22.555Z,101155.02
2019-06-08T10:28:28.971Z,101163.55
2019-06-08T10:31:39.915Z,101159.70
2019-06-08T10:34:42.003Z,101149.24
2019-06-08T10:37:47.820Z,101151.34
2019-06-08T10:41:11.998Z,101148.64
2019-06-08T10:44:14.055Z,101156.80
2019-06-08T10:47:17.712Z,101153.31
2019-06-08T10:50:23.215Z,101158.63
2019-06-08T10:53:45.058Z,101166.48
2019-06-08T10:56:38.402Z,101163.16
2019-06-08T10:59:42.589Z,101155.13
2019-06-08T11:02:48.870Z,101153.60
2019-06-08T11:05:54.181Z,101150.09
2019-06-08T11:09:03.940Z,101157.59
2019-06-08T11:12:12.359Z,101160.10
2019-06-08T11:15:14.080Z,101162.92
2019-06-08T11:18:19.629Z,101153.25
2019-06-08T11:21:24.581Z,101156.64
2019-06-08T11:24:29.534Z,101156.13
2019-06-08T11:27:34.353Z,101156.63
2019-06-08T11:30:39.368Z,101159.77
2019-06-08T11:33:44.230Z,101160.34
2019-06-08T11:36:51.556Z,101163.50
2019-06-08T11:39:57.684Z,101162.89
2019-06-08T11:43:04.303Z,101161.50
2019-06-08T11:46:10.670Z,101156.32
2019-06-08T11:49:18.596Z,101163.57
2019-06-08T11:52:25.705Z,101162.80
2019-06-08T11:55:29.529Z,101159.11
2019-06-08T11:58:38.521Z,101163.33
2019-06-08T12:01:43.912Z,101165.83
2019-06-08T12:04:49.200Z,101154.67
2019-06-08T12:07:54.012Z,101154.88
2019-06-08T12:11:02.029Z,101153.50
2019-06-08T12:14:09.181Z,101155.31
2019-06-08T12:17:18.878Z,101156.98
2019-06-08T12:20:21.435Z,101148.70
2019-06-08T12:23:26.640Z,101153.33
2019-06-08T12:26:31.532Z,101149.80
2019-06-08T12:29:36.421Z,101145.81
2019-06-08T12:32:41.859Z,101155.70
2019-06-08T12:35:47.756Z,101152.78
2019-06-08T12:38:53.666Z,101145.72
2019-06-08T12:41:59.024Z,101157.47
2019-06-08T12:45:04.192Z,101149.23
2019-06-08T12:48:15.712Z,101147.63
2019-06-08T12:51:17.249Z,101150.72
2019-06-08T12:54:22.342Z,101141.89
2019-06-08T12:57:28.561Z,101151.16
2019-06-08T13:00:33.670Z,101156.17
2019-06-08T13:03:38.437Z,101150.52
2019-06-08T13:06:43.280Z,101139.80
2019-06-08T13:09:48.461Z,101143.27
2019-06-08T13:12:53.432Z,101146.47
2019-06-08T13:15:58.461Z,101155.06
2019-06-08T13:19:03.240Z,101153.19
2019-06-08T13:22:08.941Z,101149.19
2019-06-08T13:25:23.640Z,101162.60
2019-06-08T13:28:25.059Z,101157.58
2019-06-08T13:31:28.723Z,101152.03
2019-06-08T13:34:33.801Z,101156.89
2019-06-08T13:37:39.074Z,101156.83
2019-06-08T13:40:44.162Z,101152.16
2019-06-08T13:43:49.722Z,101143.62
2019-06-08T13:46:54.588Z,101141.16
2019-06-08T13:49:59.590Z,101140.61
2019-06-08T13:53:04.359Z,101150.42
2019-06-08T13:56:09.095Z,101138.47
2019-06-08T13:59:18.391Z,101143.51
2019-06-08T14:05:30.938Z,101154.19
2019-06-08T14:08:38.446Z,101140.38
2019-06-08T14:11:42.281Z,101135.27
2019-06-08T14:14:48.008Z,101137.82
2019-06-08T14:17:53.112Z,101140.42
2019-06-08T14:20:59.261Z,101146.09
2019-06-08T14:24:04.232Z,101145.80
2019-06-08T14:27:09.177Z,101145.92
2019-06-08T14:30:14.073Z,101139.75
2019-06-08T14:33:24.164Z,101142.36
2019-06-08T14:36:26.630Z,101146.52
2019-06-08T14:39:32.149Z,101144.43
2019-06-08T14:42:38.438Z,101151.25
2019-06-08T14:45:43.451Z,101143.83
2019-06-08T14:48:48.209Z,101142.23
2019-06-08T14:51:52.992Z,101149.98
2019-06-08T14:54:58.668Z,101155.86
2019-06-08T14:58:04.282Z,101146.34
2019-06-08T15:01:09.513Z,101141.64
2019-06-08T15:04:15.227Z,101140.61
2019-06-08T15:07:22.973Z,101137.40
2019-06-08T15:10:29.383Z,101142.35
2019-06-08T15:13:33.496Z,101125.23
2019-06-08T15:16:41.623Z,101124.19
2019-06-08T15:19:47.516Z,101132.16
2019-06-08T15:22:52.345Z,101119.58
2019-06-08T15:25:58.294Z,101134.50
2019-06-08T15:29:03.766Z,101130.59
2019-06-08T15:32:08.559Z,101127.70
2019-06-08T15:35:13.695Z,101126.98
2019-06-08T15:38:20.816Z,101123.11
2019-06-08T15:41:26.518Z,101124.30
2019-06-08T15:44:33.744Z,101121.69
2019-06-08T15:47:40.856Z,101116.07
2019-06-08T15:50:47.172Z,101117.94
2019-06-08T15:53:52.529Z,101111.92
2019-06-08T15:56:58.539Z,101114.23
2019-06-08T16:00:03.677Z,101106.89
2019-06-08T16:03:08.665Z,101106.20
2019-06-08T16:06:13.514Z,101116.39
2019-06-08T16:09:18.650Z,101108.23
2019-06-08T16:12:24.284Z,101108.85
2019-06-08T16:15:29.130Z,101103.88
2019-06-08T16:18:35.800Z,101104.11
2019-06-08T16:21:40.862Z,101109.84
2019-06-08T16:24:45.777Z,101103.06
2019-06-08T16:27:50.636Z,101104.19
2019-06-08T16:30:56.268Z,101097.61
2019-06-08T16:34:01.018Z,101105.30
2019-06-08T16:37:06.126Z,101106.24
2019-06-08T16:40:11.456Z,101100.14
2019-06-08T16:43:16.372Z,101099.48
2019-06-08T16:46:21.193Z,101101.28
2019-06-08T16:49:27.097Z,101101.98
2019-06-08T16:52:32.538Z,101099.67
2019-06-08T16:55:38.433Z,101109.98
2019-06-08T16:58:43.335Z,101111.16
2019-06-08T17:01:48.253Z,101106.89
2019-06-08T17:04:53.859Z,101112.02
2019-06-08T17:07:59.136Z,101116.45
2019-06-08T17:11:03.957Z,101114.84
2019-06-08T17:14:09.055Z,101112.33
2019-06-08T17:17:13.799Z,101115.36
2019-06-08T17:20:18.900Z,101112.81
2019-06-08T17:23:23.660Z,101109.98
2019-06-08T17:26:28.710Z,101112.28
2019-06-08T17:29:34.913Z,101108.92
2019-06-08T17:32:41.128Z,101112.06
2019-06-08T17:35:47.381Z,101109.25
2019-06-08T17:38:52.817Z,101106.68
2019-06-08T17:41:58.007Z,101111.05
2019-06-08T17:45:02.902Z,101111.53
2019-06-08T17:48:07.671Z,101110.25
2019-06-08T17:51:12.824Z,101115.01
2019-06-08T17:54:18.027Z,101110.87
2019-06-08T17:57:23.730Z,101114.69
2019-06-08T18:00:28.553Z,101109.89
2019-06-08T18:03:33.501Z,101118.83
2019-06-08T18:06:40.259Z,101110.91
2019-06-08T18:09:45.217Z,101116.34
2019-06-08T18:12:51.210Z,101115.98
2019-06-08T18:15:57.624Z,101112.73
2019-06-08T18:19:02.493Z,101116.91
2019-06-08T18:22:15.056Z,101113.04
2019-06-08T18:25:17.370Z,101116.77
2019-06-08T18:28:21.784Z,101119.07
2019-06-08T18:31:27.632Z,101125.27
2019-06-08T18:34:32.648Z,101117.28
2019-06-08T18:37:41.393Z,101117.92
2019-06-08T18:40:48.405Z,101123.97
2019-06-08T18:43:53.258Z,101127.18
2019-06-08T18:46:58.463Z,101122.11
2019-06-08T18:50:03.326Z,101118.58
2019-06-08T18:53:08.098Z,101125.52
2019-06-08T18:56:14.467Z,101132.29
2019-06-08T18:59:19.480Z,101128.55
2019-06-08T19:02:25.935Z,101129.06
2019-06-08T19:05:32.631Z,101129.31
2019-06-08T19:08:40.876Z,101127.83
2019-06-08T19:11:44.070Z,101132.56
2019-06-08T19:14:51.964Z,101142.25
2019-06-08T19:17:57.350Z,101137.28
2019-06-08T19:21:02.385Z,101148.97
2019-06-08T19:24:09.606Z,101160.24
2019-06-08T19:27:13.817Z,101163.52
2019-06-08T19:30:20.665Z,101161.70
2019-06-08T19:33:28.049Z,101167.15
2019-06-08T19:36:32.921Z,101170.75
2019-06-08T19:39:41.425Z,101176.52
2019-06-08T19:42:53.570Z,101179.06
2019-06-08T19:45:52.112Z,101176.95
2019-06-08T19:48:58.931Z,101184.03
2019-06-08T19:52:03.400Z,101191.52
2019-06-08T19:55:09.413Z,101196.09
2019-06-08T19:58:14.249Z,101195.16
2019-06-08T20:01:19.079Z,101210.37
2019-06-08T20:04:23.841Z,101200.98
2019-06-08T20:07:28.874Z,101209.55
2019-06-08T20:10:33.718Z,101210.55
2019-06-08T20:13:38.490Z,101216.80
2019-06-08T20:16:44.660Z,101219.08
2019-06-08T20:19:50.809Z,101223.28
2019-06-08T20:22:58.364Z,101223.36
2019-06-08T20:26:02.578Z,101227.38
2019-06-08T20:29:13.462Z,101239.33
2019-06-08T20:32:14.109Z,101243.37
2019-06-08T20:35:20.181Z,101246.84
2019-06-08T20:38:35.190Z,101246.17
2019-06-08T20:41:31.511Z,101242.09
2019-06-08T20:44:38.222Z,101247.16
2019-06-08T20:47:44.338Z,101248.37
2019-06-08T20:50:49.724Z,101246.30
2019-06-08T20:53:57.294Z,101251.88
2019-06-08T20:57:02.240Z,101253.45
2019-06-08T21:00:09.163Z,101252.31
2019-06-08T21:03:17.404Z,101259.02
2019-06-08T21:06:21.667Z,101262.95
2019-06-08T21:09:27.756Z,101270.66
2019-06-08T21:12:32.947Z,101266.08
2019-06-08T21:15:38.255Z,101268.58
2019-06-08T21:18:44.711Z,101266.23
2019-06-08T21:21:51.566Z,101272.75
2019-06-08T21:24:59.731Z,101271.45
2019-06-08T21:28:02.694Z,101272.45
2019-06-08T21:31:08.607Z,101266.78
2019-06-08T21:34:13.453Z,101268.75
2019-06-08T21:37:18.673Z,101269.09
2019-06-08T21:40:23.594Z,101268.52
2019-06-08T21:43:28.359Z,101274.76
2019-06-08T21:46:33.125Z,101264.66
2019-06-08T21:49:38.492Z,101257.70
2019-06-08T21:52:43.435Z,101258.14
2019-06-08T21:55:49.571Z,101261.87
2019-06-08T21:58:54.734Z,101265.86
2019-06-08T22:02:02.630Z,101260.08
2019-06-08T22:05:08.271Z,101267.66
2019-06-08T22:08:13.989Z,101263.20
2019-06-08T22:11:18.761Z,101263.20
2019-06-08T22:14:23.641Z,101262.09
2019-06-08T22:17:28.892Z,101264.50
2019-06-08T22:20:33.681Z,101260.95
2019-06-08T22:23:38.865Z,101268.36
2019-06-08T22:26:44.069Z,101267.02
2019-06-08T22:29:48.898Z,101275.25
2019-06-08T22:32:55.561Z,101270.69
2019-06-08T22:36:00.820Z,101271.99
2019-06-08T22:39:08.237Z,101280.05
2019-06-08T22:42:14.783Z,101276.42
2019-06-08T22:45:19.701Z,101275.56
2019-06-08T22:48:27.613Z,101275.44
2019-06-08T22:51:31.613Z,101278.22
2019-06-08T22:54:38.379Z,101278.22
2019-06-08T22:57:43.171Z,101284.41
2019-06-08T23:00:52.534Z,101277.37
2019-06-08T23:03:56.151Z,101276.33
2019-06-08T23:07:04.373Z,101275.27
2019-06-08T23:10:08.855Z,101265.26
2019-06-08T23:13:14.186Z,101268.80
2019-06-08T23:16:18.972Z,101258.97
2019-06-08T23:19:27.036Z,101264.75
2019-06-08T23:22:32.221Z,101267.01
2019-06-08T23:25:37.678Z,101259.29
2019-06-08T23:28:42.795Z,101258.90
2019-06-08T23:31:48.261Z,101262.48
2019-06-08T23:34:53.024Z,101254.66
2019-06-08T23:37:58.859Z,101252.92
2019-06-08T23:41:03.964Z,101249.18
2019-06-08T23:44:08.746Z,101249.80
2019-06-08T23:47:13.474Z,101248.52
2019-06-08T23:50:18.495Z,101251.59
2019-06-08T23:53:23.286Z,101246.79
2019-06-08T23:56:28.047Z,101246.79
2019-06-08T23:59:32.842Z,101259.02
